Brilliant Pescadores — H9JY — position and weather

sailwx.info

Track history (hours):
 
Tides and Currents Weather Stations Pressure Air Temp Water Temp Dewpoint Dewpoint Depression Visibility Wind Speed Wind Dir Waves Ship Positions

Brilliant Pescadores

Last reported at 2018-Jul-17 14:43 UTC. Time now 2018-Jul-20 12:03 UTC.
Position N 01°19' E 103°19'.

Length 116 m; draft 6.9 m.

Type: Cargo ship. MMSI: 353379000.

Date/timePositionNaut miles runAvg speedWind from/ knotsBaromVisibWave heightAir tempDewpointWater temp
2018-Jul-17 14:43N 01°19' E 103°19'313.8
2018-Jul-17 14:28N 01°17' E 103°21'713.8
2018-Jul-17 14:00N 01°14' E 103°27'714.3
2018-Jul-17 13:30N 01°12' E 103°34'713.8
2018-Jul-17 12:59N 01°10' E 103°41'612.1
2018-Jul-17 12:29N 01°10' E 103°47'713.2
2018-Jul-17 11:59N 01°13' E 103°53'612.5
2018-Jul-17 11:30N 01°15' E 103°58'612.1
2018-Jul-17 10:59N 01°16' E 104°05'4 8.1
2018-Jul-17 10:28N 01°21' E 104°04'510.5
2018-Jul-17 09:56N 01°24' E 103°59'4 8.9
2018-Jul-17 09:29N 01°25' E 103°56'2 3.3
2018-Jul-17 08:59N 01°26' E 103°54'0 0.0
2018-Jul-17 08:28N 01°26' E 103°54'0 0.0
2018-Jul-17 07:54N 01°26' E 103°54'0 0.0
2018-Jul-17 06:57N 01°26' E 103°54'0 0.0
2018-Jul-17 06:30N 01°26' E 103°54'0 0.0
2018-Jul-17 05:42N 01°26' E 103°54'0 0.0
2018-Jul-17 05:24N 01°26' E 103°54'0 0.0
2018-Jul-17 04:51N 01°26' E 103°54'0 0.0
2018-Jul-17 02:33N 01°26' E 103°54'0 0.0
2018-Jul-17 02:25N 01°26' E 103°54'0 0.0
2018-Jul-17 01:43N 01°26' E 103°54'0 0.0
2018-Jul-17 01:15N 01°26' E 103°54'0 0.0
2018-Jul-17 00:42N 01°26' E 103°54'0 0.0
2018-Jul-17 00:27N 01°26' E 103°54'0 0.1
2018-Jul-16 23:30N 01°26' E 103°54'3 5.6
2018-Jul-16 22:59N 01°24' E 103°57'3 6.9
2018-Jul-16 22:30N 01°24' E 103°60'5 9.2
2018-Jul-16 21:58N 01°21' E 104°04'3 7.0
2018-Jul-16 21:30N 01°19' E 104°06'1 0.9
2018-Jul-16 20:54N 01°19' E 104°07'0 0.0
2018-Jul-16 20:30N 01°19' E 104°07'0 0.0
2018-Jul-16 19:34N 01°19' E 104°07'0 0.0
2018-Jul-16 19:09N 01°19' E 104°07'0 0.1
2018-Jul-16 18:54N 01°19' E 104°07'0 0.2
2018-Jul-16 18:24N 01°19' E 104°07'0 0.1
2018-Jul-16 17:45N 01°19' E 104°07'1 2.2
2018-Jul-16 17:30N 01°19' E 104°07'3 6.1
2018-Jul-16 16:58N 01°16' E 104°06'510.8
2018-Jul-16 16:28N 01°14' E 104°01'510.7
2018-Jul-16 16:00N 01°13' E 103°56'510.5
2018-Jul-16 15:31N 01°11' E 103°51'3 6.6
2018-Jul-16 15:00N 01°13' E 103°48'3 6.4
2018-Jul-16 14:30N 01°15' E 103°46'4 8.0
2018-Jul-16 14:00N 01°18' E 103°43'0 0.8
2018-Jul-16 13:30N 01°19' E 103°43'0 0.0
2018-Jul-16 12:57N 01°19' E 103°43'0 0.0
2018-Jul-16 12:30N 01°19' E 103°43'0 0.0
2018-Jul-16 11:54N 01°18' E 103°43'0 0.0
2018-Jul-16 11:27N 01°19' E 103°43'0 0.0
2018-Jul-16 10:56N 01°19' E 103°43'0 0.0
2018-Jul-16 10:29N 01°19' E 103°43'0 0.0
2018-Jul-16 09:57N 01°19' E 103°43'0 0.0
2018-Jul-16 09:27N 01°19' E 103°43'0 0.0
2018-Jul-16 08:59N 01°19' E 103°43'0 0.0
2018-Jul-16 08:30N 01°19' E 103°43'0 0.0
2018-Jul-16 07:57N 01°19' E 103°43'0 0.0
2018-Jul-16 07:26N 01°19' E 103°43'0 0.0
2018-Jul-16 06:57N 01°19' E 103°43'0 0.0
2018-Jul-16 06:30N 01°19' E 103°43'0 0.0
2018-Jul-16 05:59N 01°19' E 103°43'0 0.0
2018-Jul-16 05:27N 01°19' E 103°43'0 0.0
2018-Jul-16 04:57N 01°18' E 103°43'0 0.0
2018-Jul-16 04:23N 01°18' E 103°43'0 0.0
2018-Jul-16 03:59N 01°19' E 103°43'0 0.0
2018-Jul-16 03:30N 01°19' E 103°43'0 0.0
2018-Jul-16 03:00N 01°19' E 103°43'0 1.0
2018-Jul-16 02:30N 01°18' E 103°43'1 1.7
2018-Jul-16 01:59N 01°18' E 103°44'3 5.3
2018-Jul-16 01:31N 01°16' E 103°46'3 5.9
2018-Jul-16 01:01N 01°14' E 103°48'3 5.7
2018-Jul-16 00:30N 01°12' E 103°50'2 3.6
2018-Jul-15 23:59N 01°13' E 103°52'2 4.3
2018-Jul-15 23:30N 01°14' E 103°54'3 6.2
2018-Jul-15 22:59N 01°15' E 103°57'4 8.6
2018-Jul-15 22:30N 01°16' E 104°01'510.0
2018-Jul-15 22:01N 01°16' E 104°06'5 9.8
2018-Jul-15 21:30N 01°17' E 104°11'5 9.6
2018-Jul-15 20:58N 01°18' E 104°16'4 8.8
2018-Jul-15 20:28N 01°19' E 104°20'4 8.5
2018-Jul-15 19:59N 01°22' E 104°23'4 9.2
2018-Jul-15 19:30N 01°25' E 104°27'910.2
2018-Jul-15 18:37N 01°31' E 104°33'410.6
2018-Jul-15 18:15N 01°34' E 104°35'410.8
2018-Jul-15 17:53N 01°38' E 104°37'1310.9
2018-Jul-15 16:40N 01°49' E 104°43'  
Track history (hours):
 
Tides and Currents Weather Stations Pressure Air Temp Water Temp Dewpoint Dewpoint Depression Visibility Wind Speed Wind Dir Waves Ship Positions

Brilliant Pescadores

Last reported at 2018-Jul-17 14:43 UTC. Time now 2018-Jul-20 12:03 UTC.
Position N 01°19' E 103°19'.

Length 116 m; draft 6.9 m.

Type: Cargo ship. MMSI: 353379000.

Date/timePositionNaut miles runAvg speedWind from/ knotsBaromVisibWave heightAir tempDewpointWater temp
2018-Jul-17 14:43N 01°19' E 103°19'313.8
2018-Jul-17 14:28N 01°17' E 103°21'713.8
2018-Jul-17 14:00N 01°14' E 103°27'714.3
2018-Jul-17 13:30N 01°12' E 103°34'713.8
2018-Jul-17 12:59N 01°10' E 103°41'612.1
2018-Jul-17 12:29N 01°10' E 103°47'713.2
2018-Jul-17 11:59N 01°13' E 103°53'612.5
2018-Jul-17 11:30N 01°15' E 103°58'612.1
2018-Jul-17 10:59N 01°16' E 104°05'4 8.1
2018-Jul-17 10:28N 01°21' E 104°04'510.5
2018-Jul-17 09:56N 01°24' E 103°59'4 8.9
2018-Jul-17 09:29N 01°25' E 103°56'2 3.3
2018-Jul-17 08:59N 01°26' E 103°54'0 0.0
2018-Jul-17 08:28N 01°26' E 103°54'0 0.0
2018-Jul-17 07:54N 01°26' E 103°54'0 0.0
2018-Jul-17 06:57N 01°26' E 103°54'0 0.0
2018-Jul-17 06:30N 01°26' E 103°54'0 0.0
2018-Jul-17 05:42N 01°26' E 103°54'0 0.0
2018-Jul-17 05:24N 01°26' E 103°54'0 0.0
2018-Jul-17 04:51N 01°26' E 103°54'0 0.0
2018-Jul-17 02:33N 01°26' E 103°54'0 0.0
2018-Jul-17 02:25N 01°26' E 103°54'0 0.0
2018-Jul-17 01:43N 01°26' E 103°54'0 0.0
2018-Jul-17 01:15N 01°26' E 103°54'0 0.0
2018-Jul-17 00:42N 01°26' E 103°54'0 0.0
2018-Jul-17 00:27N 01°26' E 103°54'0 0.1
2018-Jul-16 23:30N 01°26' E 103°54'3 5.6
2018-Jul-16 22:59N 01°24' E 103°57'3 6.9
2018-Jul-16 22:30N 01°24' E 103°60'5 9.2
2018-Jul-16 21:58N 01°21' E 104°04'3 7.0
2018-Jul-16 21:30N 01°19' E 104°06'1 0.9
2018-Jul-16 20:54N 01°19' E 104°07'0 0.0
2018-Jul-16 20:30N 01°19' E 104°07'0 0.0
2018-Jul-16 19:34N 01°19' E 104°07'0 0.0
2018-Jul-16 19:09N 01°19' E 104°07'0 0.1
2018-Jul-16 18:54N 01°19' E 104°07'0 0.2
2018-Jul-16 18:24N 01°19' E 104°07'0 0.1
2018-Jul-16 17:45N 01°19' E 104°07'1 2.2
2018-Jul-16 17:30N 01°19' E 104°07'3 6.1
2018-Jul-16 16:58N 01°16' E 104°06'510.8
2018-Jul-16 16:28N 01°14' E 104°01'510.7
2018-Jul-16 16:00N 01°13' E 103°56'510.5
2018-Jul-16 15:31N 01°11' E 103°51'3 6.6
2018-Jul-16 15:00N 01°13' E 103°48'3 6.4
2018-Jul-16 14:30N 01°15' E 103°46'4 8.0
2018-Jul-16 14:00N 01°18' E 103°43'0 0.8
2018-Jul-16 13:30N 01°19' E 103°43'0 0.0
2018-Jul-16 12:57N 01°19' E 103°43'0 0.0
2018-Jul-16 12:30N 01°19' E 103°43'0 0.0
2018-Jul-16 11:54N 01°18' E 103°43'0 0.0
2018-Jul-16 11:27N 01°19' E 103°43'0 0.0
2018-Jul-16 10:56N 01°19' E 103°43'0 0.0
2018-Jul-16 10:29N 01°19' E 103°43'0 0.0
2018-Jul-16 09:57N 01°19' E 103°43'0 0.0
2018-Jul-16 09:27N 01°19' E 103°43'0 0.0
2018-Jul-16 08:59N 01°19' E 103°43'0 0.0
2018-Jul-16 08:30N 01°19' E 103°43'0 0.0
2018-Jul-16 07:57N 01°19' E 103°43'0 0.0
2018-Jul-16 07:26N 01°19' E 103°43'0 0.0
2018-Jul-16 06:57N 01°19' E 103°43'0 0.0
2018-Jul-16 06:30N 01°19' E 103°43'0 0.0
2018-Jul-16 05:59N 01°19' E 103°43'0 0.0
2018-Jul-16 05:27N 01°19' E 103°43'0 0.0
2018-Jul-16 04:57N 01°18' E 103°43'0 0.0
2018-Jul-16 04:23N 01°18' E 103°43'0 0.0
2018-Jul-16 03:59N 01°19' E 103°43'0 0.0
2018-Jul-16 03:30N 01°19' E 103°43'0 0.0
2018-Jul-16 03:00N 01°19' E 103°43'0 1.0
2018-Jul-16 02:30N 01°18' E 103°43'1 1.7
2018-Jul-16 01:59N 01°18' E 103°44'3 5.3
2018-Jul-16 01:31N 01°16' E 103°46'3 5.9
2018-Jul-16 01:01N 01°14' E 103°48'3 5.7
2018-Jul-16 00:30N 01°12' E 103°50'2 3.6
2018-Jul-15 23:59N 01°13' E 103°52'2 4.3
2018-Jul-15 23:30N 01°14' E 103°54'3 6.2
2018-Jul-15 22:59N 01°15' E 103°57'4 8.6
2018-Jul-15 22:30N 01°16' E 104°01'510.0
2018-Jul-15 22:01N 01°16' E 104°06'5 9.8
2018-Jul-15 21:30N 01°17' E 104°11'5 9.6
2018-Jul-15 20:58N 01°18' E 104°16'4 8.8
2018-Jul-15 20:28N 01°19' E 104°20'4 8.5
2018-Jul-15 19:59N 01°22' E 104°23'4 9.2
2018-Jul-15 19:30N 01°25' E 104°27'910.2
2018-Jul-15 18:37N 01°31' E 104°33'410.6
2018-Jul-15 18:15N 01°34' E 104°35'410.8
2018-Jul-15 17:53N 01°38' E 104°37'1310.9
2018-Jul-15 16:40N 01°49' E 104°43'  

Dump ship's entire track history